logo
Rechercher aéroport 
image banner adimage banner adimage banner ad
image banner ad

LTAE - Ankara Murted

Situé à Ankara, Turkey

ICAO - LTAE, IATA -

Données fournies par Airmate  

Information générale

Coordonnées: N40°4'44" E32°33'56"
Élévation : 2767 feet MSL.
Variation magnétique : 5.3° East
Voir autres Aéroports à Ankara

Données opérationnelles

Special qualification required
Heure actuelle UTC:
Heure actuelle locale:
Météo
METAR: LTAE 231750Z 05010KT 9999 FEW027CB SCT035 22/18 Q1011 RETSRA NOSIG RMK RWY21 04009KT 020V080
TAF: TAF LTAE 231640Z 2318/2403 01012KT 9999 SCT040 BECMG 2319/2321 VRB02KT CAVOK
Voir NOTAMs / SUP AIP / TFR affectant cet aéroport [VIEW]
Fréquences de communication: [VIEW]

Pistes:

Identifiant RWYQFULongueur (ft)Largeur (ft)SurfaceLDA (ft)
0333°10991148ASPH10991
21213°10991148ASPH10991

Coordonnées de l'aéroport

Adresse: Ankara Turkey

Vue satellite de LTAE